sensor_id;sensor_type;location;lat;lon;timestamp;P1;durP1;ratioP1;P2;durP2;ratioP2
6517;SDS011;3292;48.944;9.240;2022-07-23T00:01:19;7.82;;;7.05;;
6517;SDS011;3292;48.944;9.240;2022-07-23T00:03:46;6.82;;;6.22;;
6517;SDS011;3292;48.944;9.240;2022-07-23T00:06:13;7.60;;;6.82;;
6517;SDS011;3292;48.944;9.240;2022-07-23T00:08:40;6.38;;;5.88;;
6517;SDS011;3292;48.944;9.240;2022-07-23T00:11:07;6.65;;;6.00;;
6517;SDS011;3292;48.944;9.240;2022-07-23T00:13:34;6.38;;;5.63;;
6517;SDS011;3292;48.944;9.240;2022-07-23T00:16:01;5.88;;;5.35;;
6517;SDS011;3292;48.944;9.240;2022-07-23T00:18:30;5.57;;;5.10;;
6517;SDS011;3292;48.944;9.240;2022-07-23T00:20:57;5.10;;;4.70;;
6517;SDS011;3292;48.944;9.240;2022-07-23T00:23:24;6.55;;;4.85;;
6517;SDS011;3292;48.944;9.240;2022-07-23T00:25:52;4.90;;;4.50;;
6517;SDS011;3292;48.944;9.240;2022-07-23T00:28:19;4.70;;;4.25;;
6517;SDS011;3292;48.944;9.240;2022-07-23T00:30:46;4.90;;;4.40;;
6517;SDS011;3292;48.944;9.240;2022-07-23T00:33:13;4.93;;;4.53;;
6517;SDS011;3292;48.944;9.240;2022-07-23T00:35:41;4.85;;;4.45;;
6517;SDS011;3292;48.944;9.240;2022-07-23T00:38:09;4.90;;;4.50;;
6517;SDS011;3292;48.944;9.240;2022-07-23T00:40:36;4.78;;;4.35;;
6517;SDS011;3292;48.944;9.240;2022-07-23T00:43:04;4.70;;;4.30;;
6517;SDS011;3292;48.944;9.240;2022-07-23T00:45:31;4.97;;;4.57;;
6517;SDS011;3292;48.944;9.240;2022-07-23T00:47:59;4.80;;;4.40;;
6517;SDS011;3292;48.944;9.240;2022-07-23T00:50:26;4.85;;;4.43;;
6517;SDS011;3292;48.944;9.240;2022-07-23T00:52:54;4.90;;;3.92;;
6517;SDS011;3292;48.944;9.240;2022-07-23T00:55:22;4.32;;;3.92;;
6517;SDS011;3292;48.944;9.240;2022-07-23T00:57:49;4.43;;;4.07;;
6517;SDS011;3292;48.944;9.240;2022-07-23T01:00:17;5.13;;;4.45;;
6517;SDS011;3292;48.944;9.240;2022-07-23T01:02:44;5.15;;;4.65;;
6517;SDS011;3292;48.944;9.240;2022-07-23T01:05:11;5.03;;;4.60;;
6517;SDS011;3292;48.944;9.240;2022-07-23T01:07:38;5.10;;;4.50;;
6517;SDS011;3292;48.944;9.240;2022-07-23T01:10:07;4.50;;;4.20;;
6517;SDS011;3292;48.944;9.240;2022-07-23T01:12:48;4.53;;;4.00;;
6517;SDS011;3292;48.944;9.240;2022-07-23T01:15:15;4.93;;;4.55;;
6517;SDS011;3292;48.944;9.240;2022-07-23T01:17:42;4.68;;;4.30;;
6517;SDS011;3292;48.944;9.240;2022-07-23T01:20:09;4.68;;;4.28;;
6517;SDS011;3292;48.944;9.240;2022-07-23T01:22:37;5.47;;;4.43;;
6517;SDS011;3292;48.944;9.240;2022-07-23T01:25:05;4.53;;;4.20;;
6517;SDS011;3292;48.944;9.240;2022-07-23T01:27:32;4.80;;;4.40;;
6517;SDS011;3292;48.944;9.240;2022-07-23T01:30:00;5.40;;;4.90;;
6517;SDS011;3292;48.944;9.240;2022-07-23T01:32:27;5.75;;;4.63;;
6517;SDS011;3292;48.944;9.240;2022-07-23T01:34:53;4.95;;;4.55;;
6517;SDS011;3292;48.944;9.240;2022-07-23T01:37:20;5.25;;;4.80;;
6517;SDS011;3292;48.944;9.240;2022-07-23T01:39:48;4.97;;;4.57;;
6517;SDS011;3292;48.944;9.240;2022-07-23T01:42:15;4.82;;;4.47;;
6517;SDS011;3292;48.944;9.240;2022-07-23T01:44:42;4.93;;;4.53;;
6517;SDS011;3292;48.944;9.240;2022-07-23T01:47:09;5.28;;;4.80;;
6517;SDS011;3292;48.944;9.240;2022-07-23T01:49:36;5.13;;;4.72;;
6517;SDS011;3292;48.944;9.240;2022-07-23T01:52:03;5.25;;;4.70;;
6517;SDS011;3292;48.944;9.240;2022-07-23T01:54:34;4.95;;;4.50;;
6517;SDS011;3292;48.944;9.240;2022-07-23T01:57:02;4.68;;;4.28;;
6517;SDS011;3292;48.944;9.240;2022-07-23T01:59:29;5.15;;;4.65;;
6517;SDS011;3292;48.944;9.240;2022-07-23T02:01:56;4.82;;;4.43;;
6517;SDS011;3292;48.944;9.240;2022-07-23T02:04:24;5.38;;;4.97;;
6517;SDS011;3292;48.944;9.240;2022-07-23T02:06:51;6.75;;;4.68;;
6517;SDS011;3292;48.944;9.240;2022-07-23T02:09:18;4.75;;;4.43;;
6517;SDS011;3292;48.944;9.240;2022-07-23T02:11:45;5.20;;;4.65;;
6517;SDS011;3292;48.944;9.240;2022-07-23T02:14:14;4.90;;;4.45;;
6517;SDS011;3292;48.944;9.240;2022-07-23T02:16:41;5.82;;;4.70;;
6517;SDS011;3292;48.944;9.240;2022-07-23T02:19:07;6.50;;;5.03;;
6517;SDS011;3292;48.944;9.240;2022-07-23T02:21:34;5.40;;;4.50;;
6517;SDS011;3292;48.944;9.240;2022-07-23T02:24:01;5.15;;;4.60;;
6517;SDS011;3292;48.944;9.240;2022-07-23T02:26:28;5.95;;;4.45;;
6517;SDS011;3292;48.944;9.240;2022-07-23T02:28:57;5.05;;;4.55;;
6517;SDS011;3292;48.944;9.240;2022-07-23T02:31:25;5.03;;;4.53;;
6517;SDS011;3292;48.944;9.240;2022-07-23T02:33:52;5.38;;;4.97;;
6517;SDS011;3292;48.944;9.240;2022-07-23T02:36:19;5.30;;;4.78;;
6517;SDS011;3292;48.944;9.240;2022-07-23T02:38:46;5.53;;;4.93;;
6517;SDS011;3292;48.944;9.240;2022-07-23T02:41:13;5.03;;;4.60;;
6517;SDS011;3292;48.944;9.240;2022-07-23T02:43:40;4.82;;;4.43;;
6517;SDS011;3292;48.944;9.240;2022-07-23T02:46:06;5.50;;;5.00;;
6517;SDS011;3292;48.944;9.240;2022-07-23T02:48:35;4.77;;;4.40;;
6517;SDS011;3292;48.944;9.240;2022-07-23T02:51:02;4.73;;;4.33;;
6517;SDS011;3292;48.944;9.240;2022-07-23T02:53:29;4.45;;;4.05;;
6517;SDS011;3292;48.944;9.240;2022-07-23T02:55:56;5.07;;;4.67;;
6517;SDS011;3292;48.944;9.240;2022-07-23T02:58:22;5.30;;;4.77;;
6517;SDS011;3292;48.944;9.240;2022-07-23T03:00:51;5.23;;;4.80;;
6517;SDS011;3292;48.944;9.240;2022-07-23T03:03:18;6.03;;;5.13;;
6517;SDS011;3292;48.944;9.240;2022-07-23T03:05:46;5.77;;;5.27;;
6517;SDS011;3292;48.944;9.240;2022-07-23T03:08:14;5.40;;;4.93;;
6517;SDS011;3292;48.944;9.240;2022-07-23T03:10:41;6.00;;;5.50;;
6517;SDS011;3292;48.944;9.240;2022-07-23T03:13:08;6.20;;;5.33;;
6517;SDS011;3292;48.944;9.240;2022-07-23T03:15:34;6.13;;;5.20;;
6517;SDS011;3292;48.944;9.240;2022-07-23T03:18:01;5.30;;;4.85;;
6517;SDS011;3292;48.944;9.240;2022-07-23T03:20:28;5.47;;;4.97;;
6517;SDS011;3292;48.944;9.240;2022-07-23T03:22:56;5.37;;;4.87;;
6517;SDS011;3292;48.944;9.240;2022-07-23T03:25:23;5.13;;;4.63;;
6517;SDS011;3292;48.944;9.240;2022-07-23T03:27:50;5.77;;;4.93;;
6517;SDS011;3292;48.944;9.240;2022-07-23T03:30:17;5.80;;;5.20;;
6517;SDS011;3292;48.944;9.240;2022-07-23T03:32:44;5.03;;;4.50;;
6517;SDS011;3292;48.944;9.240;2022-07-23T03:35:10;5.40;;;4.93;;
6517;SDS011;3292;48.944;9.240;2022-07-23T03:37:37;4.93;;;4.53;;
6517;SDS011;3292;48.944;9.240;2022-07-23T03:40:06;5.03;;;4.63;;
6517;SDS011;3292;48.944;9.240;2022-07-23T03:42:34;5.43;;;5.03;;
6517;SDS011;3292;48.944;9.240;2022-07-23T03:45:02;6.00;;;4.80;;
6517;SDS011;3292;48.944;9.240;2022-07-23T03:47:29;4.70;;;4.30;;
6517;SDS011;3292;48.944;9.240;2022-07-23T03:49:56;5.10;;;4.70;;
6517;SDS011;3292;48.944;9.240;2022-07-23T03:52:23;5.47;;;4.80;;
6517;SDS011;3292;48.944;9.240;2022-07-23T03:54:50;5.03;;;4.63;;
6517;SDS011;3292;48.944;9.240;2022-07-23T03:57:18;5.07;;;4.67;;
6517;SDS011;3292;48.944;9.240;2022-07-23T03:59:45;5.33;;;4.93;;
6517;SDS011;3292;48.944;9.240;2022-07-23T04:02:12;7.30;;;4.97;;
6517;SDS011;3292;48.944;9.240;2022-07-23T04:04:38;5.80;;;5.00;;
6517;SDS011;3292;48.944;9.240;2022-07-23T04:07:05;6.53;;;5.53;;
6517;SDS011;3292;48.944;9.240;2022-07-23T04:09:32;5.30;;;4.87;;
6517;SDS011;3292;48.944;9.240;2022-07-23T04:11:59;5.57;;;5.07;;
6517;SDS011;3292;48.944;9.240;2022-07-23T04:14:28;5.30;;;4.57;;
6517;SDS011;3292;48.944;9.240;2022-07-23T04:16:55;5.10;;;4.70;;
6517;SDS011;3292;48.944;9.240;2022-07-23T04:19:22;4.83;;;4.43;;
6517;SDS011;3292;48.944;9.240;2022-07-23T04:21:49;4.90;;;4.50;;
6517;SDS011;3292;48.944;9.240;2022-07-23T04:24:15;5.40;;;5.00;;
6517;SDS011;3292;48.944;9.240;2022-07-23T04:26:42;4.70;;;4.30;;
6517;SDS011;3292;48.944;9.240;2022-07-23T04:29:09;4.93;;;4.50;;
6517;SDS011;3292;48.944;9.240;2022-07-23T04:31:38;5.63;;;5.00;;
6517;SDS011;3292;48.944;9.240;2022-07-23T04:34:05;5.30;;;4.80;;
6517;SDS011;3292;48.944;9.240;2022-07-23T04:36:31;5.50;;;5.10;;
6517;SDS011;3292;48.944;9.240;2022-07-23T04:38:58;5.40;;;4.90;;
6517;SDS011;3292;48.944;9.240;2022-07-23T04:41:25;5.30;;;4.80;;
6517;SDS011;3292;48.944;9.240;2022-07-23T04:43:52;5.53;;;5.03;;
6517;SDS011;3292;48.944;9.240;2022-07-23T04:46:19;5.37;;;4.97;;
6517;SDS011;3292;48.944;9.240;2022-07-23T04:48:47;5.50;;;5.03;;
6517;SDS011;3292;48.944;9.240;2022-07-23T04:51:14;5.43;;;4.93;;
6517;SDS011;3292;48.944;9.240;2022-07-23T04:53:41;5.23;;;4.73;;
6517;SDS011;3292;48.944;9.240;2022-07-23T04:56:07;5.20;;;4.80;;
6517;SDS011;3292;48.944;9.240;2022-07-23T04:58:34;5.10;;;4.73;;
6517;SDS011;3292;48.944;9.240;2022-07-23T05:01:01;6.47;;;5.20;;
6517;SDS011;3292;48.944;9.240;2022-07-23T05:03:28;5.30;;;4.90;;
6517;SDS011;3292;48.944;9.240;2022-07-23T05:05:56;6.17;;;5.67;;
6517;SDS011;3292;48.944;9.240;2022-07-23T05:08:23;7.50;;;5.20;;
6517;SDS011;3292;48.944;9.240;2022-07-23T05:10:50;5.93;;;5.43;;
6517;SDS011;3292;48.944;9.240;2022-07-23T05:13:17;6.00;;;5.27;;
6517;SDS011;3292;48.944;9.240;2022-07-23T05:15:44;5.73;;;5.10;;
6517;SDS011;3292;48.944;9.240;2022-07-23T05:18:11;5.93;;;5.43;;
6517;SDS011;3292;48.944;9.240;2022-07-23T05:20:38;6.30;;;5.70;;
6517;SDS011;3292;48.944;9.240;2022-07-23T05:23:07;5.80;;;5.30;;
6517;SDS011;3292;48.944;9.240;2022-07-23T05:25:35;5.93;;;5.43;;
6517;SDS011;3292;48.944;9.240;2022-07-23T05:28:02;5.80;;;5.30;;
6517;SDS011;3292;48.944;9.240;2022-07-23T05:30:29;5.47;;;5.00;;
6517;SDS011;3292;48.944;9.240;2022-07-23T05:32:56;5.80;;;5.30;;
6517;SDS011;3292;48.944;9.240;2022-07-23T05:35:23;5.70;;;5.20;;
6517;SDS011;3292;48.944;9.240;2022-07-23T05:37:50;6.10;;;5.50;;
6517;SDS011;3292;48.944;9.240;2022-07-23T05:40:19;7.55;;;6.32;;
6517;SDS011;3292;48.944;9.240;2022-07-23T05:42:46;6.78;;;6.18;;
6517;SDS011;3292;48.944;9.240;2022-07-23T05:45:12;7.20;;;6.50;;
6517;SDS011;3292;48.944;9.240;2022-07-23T05:47:40;6.57;;;6.07;;
6517;SDS011;3292;48.944;9.240;2022-07-23T05:50:08;8.27;;;6.45;;
6517;SDS011;3292;48.944;9.240;2022-07-23T05:52:35;8.17;;;6.37;;
6517;SDS011;3292;48.944;9.240;2022-07-23T05:55:02;6.90;;;6.27;;
6517;SDS011;3292;48.944;9.240;2022-07-23T05:57:31;6.83;;;6.03;;
6517;SDS011;3292;48.944;9.240;2022-07-23T05:59:58;6.77;;;6.07;;
6517;SDS011;3292;48.944;9.240;2022-07-23T06:02:24;6.13;;;5.63;;
6517;SDS011;3292;48.944;9.240;2022-07-23T06:04:51;6.47;;;5.90;;
6517;SDS011;3292;48.944;9.240;2022-07-23T06:07:18;7.00;;;6.30;;
6517;SDS011;3292;48.944;9.240;2022-07-23T06:09:45;7.27;;;6.53;;
6517;SDS011;3292;48.944;9.240;2022-07-23T06:12:14;7.00;;;6.30;;
6517;SDS011;3292;48.944;9.240;2022-07-23T06:14:42;7.07;;;6.47;;
6517;SDS011;3292;48.944;9.240;2022-07-23T06:17:09;7.63;;;6.80;;
6517;SDS011;3292;48.944;9.240;2022-07-23T06:19:36;7.30;;;6.70;;
6517;SDS011;3292;48.944;9.240;2022-07-23T06:22:03;7.73;;;7.03;;
6517;SDS011;3292;48.944;9.240;2022-07-23T06:24:30;7.73;;;6.93;;
6517;SDS011;3292;48.944;9.240;2022-07-23T06:26:57;7.23;;;6.53;;
6517;SDS011;3292;48.944;9.240;2022-07-23T06:29:24;7.97;;;7.27;;
6517;SDS011;3292;48.944;9.240;2022-07-23T06:31:52;8.43;;;7.63;;
6517;SDS011;3292;48.944;9.240;2022-07-23T06:34:19;8.50;;;7.70;;
6517;SDS011;3292;48.944;9.240;2022-07-23T06:36:46;9.60;;;7.57;;
6517;SDS011;3292;48.944;9.240;2022-07-23T06:39:12;10.47;;;7.83;;
6517;SDS011;3292;48.944;9.240;2022-07-23T06:41:39;8.60;;;7.80;;
6517;SDS011;3292;48.944;9.240;2022-07-23T06:44:06;9.20;;;7.60;;
6517;SDS011;3292;48.944;9.240;2022-07-23T06:46:33;11.13;;;7.50;;
6517;SDS011;3292;48.944;9.240;2022-07-23T06:49:02;8.63;;;7.83;;
6517;SDS011;3292;48.944;9.240;2022-07-23T06:51:29;8.00;;;7.10;;
6517;SDS011;3292;48.944;9.240;2022-07-23T06:53:56;10.33;;;7.93;;
6517;SDS011;3292;48.944;9.240;2022-07-23T06:56:23;8.40;;;7.60;;
6517;SDS011;3292;48.944;9.240;2022-07-23T06:58:50;7.80;;;7.10;;
6517;SDS011;3292;48.944;9.240;2022-07-23T07:01:17;8.50;;;7.70;;
6517;SDS011;3292;48.944;9.240;2022-07-23T07:03:44;8.93;;;7.60;;
6517;SDS011;3292;48.944;9.240;2022-07-23T07:06:12;9.47;;;8.47;;
6517;SDS011;3292;48.944;9.240;2022-07-23T07:08:39;9.43;;;8.47;;
6517;SDS011;3292;48.944;9.240;2022-07-23T07:11:08;8.87;;;7.90;;
6517;SDS011;3292;48.944;9.240;2022-07-23T07:13:35;9.20;;;8.40;;
6517;SDS011;3292;48.944;9.240;2022-07-23T07:16:02;8.90;;;8.00;;
6517;SDS011;3292;48.944;9.240;2022-07-23T07:18:29;9.10;;;7.90;;
6517;SDS011;3292;48.944;9.240;2022-07-23T07:20:56;9.20;;;8.30;;
6517;SDS011;3292;48.944;9.240;2022-07-23T07:23:24;11.60;;;8.90;;
6517;SDS011;3292;48.944;9.240;2022-07-23T07:25:51;8.43;;;7.63;;
6517;SDS011;3292;48.944;9.240;2022-07-23T07:28:18;8.63;;;7.93;;
6517;SDS011;3292;48.944;9.240;2022-07-23T07:30:45;9.50;;;8.50;;
6517;SDS011;3292;48.944;9.240;2022-07-23T07:33:12;11.47;;;8.70;;
6517;SDS011;3292;48.944;9.240;2022-07-23T07:35:38;9.67;;;8.77;;
6517;SDS011;3292;48.944;9.240;2022-07-23T07:38:05;9.93;;;9.03;;
6517;SDS011;3292;48.944;9.240;2022-07-23T07:40:33;10.67;;;8.10;;
6517;SDS011;3292;48.944;9.240;2022-07-23T07:43:00;9.90;;;8.97;;
6517;SDS011;3292;48.944;9.240;2022-07-23T07:45:28;12.27;;;9.77;;
6517;SDS011;3292;48.944;9.240;2022-07-23T07:47:55;10.40;;;8.57;;
6517;SDS011;3292;48.944;9.240;2022-07-23T07:50:22;10.53;;;8.97;;
6517;SDS011;3292;48.944;9.240;2022-07-23T07:52:49;11.50;;;9.63;;
6517;SDS011;3292;48.944;9.240;2022-07-23T07:55:16;11.37;;;9.83;;
6517;SDS011;3292;48.944;9.240;2022-07-23T07:57:44;11.20;;;9.57;;
6517;SDS011;3292;48.944;9.240;2022-07-23T08:00:11;9.83;;;8.97;;
6517;SDS011;3292;48.944;9.240;2022-07-23T08:02:39;8.70;;;7.90;;
6517;SDS011;3292;48.944;9.240;2022-07-23T08:05:07;10.67;;;8.33;;
6517;SDS011;3292;48.944;9.240;2022-07-23T08:07:35;9.47;;;8.57;;
6517;SDS011;3292;48.944;9.240;2022-07-23T08:10:02;9.03;;;8.13;;
6517;SDS011;3292;48.944;9.240;2022-07-23T08:12:37;8.30;;;7.60;;
6517;SDS011;3292;48.944;9.240;2022-07-23T08:15:06;9.03;;;8.13;;
6517;SDS011;3292;48.944;9.240;2022-07-23T08:17:34;8.93;;;8.13;;
6517;SDS011;3292;48.944;9.240;2022-07-23T08:20:01;9.50;;;8.70;;
6517;SDS011;3292;48.944;9.240;2022-07-23T08:22:41;9.33;;;8.43;;
6517;SDS011;3292;48.944;9.240;2022-07-23T08:25:09;9.70;;;8.87;;
6517;SDS011;3292;48.944;9.240;2022-07-23T08:27:36;11.43;;;10.27;;
6517;SDS011;3292;48.944;9.240;2022-07-23T08:30:03;10.77;;;9.67;;
6517;SDS011;3292;48.944;9.240;2022-07-23T08:32:32;9.47;;;8.57;;
6517;SDS011;3292;48.944;9.240;2022-07-23T08:34:59;9.90;;;8.70;;
6517;SDS011;3292;48.944;9.240;2022-07-23T08:37:26;10.10;;;9.10;;
6517;SDS011;3292;48.944;9.240;2022-07-23T08:39:53;9.27;;;8.47;;
6517;SDS011;3292;48.944;9.240;2022-07-23T08:42:21;9.83;;;9.03;;
6517;SDS011;3292;48.944;9.240;2022-07-23T08:44:48;8.80;;;8.00;;
6517;SDS011;3292;48.944;9.240;2022-07-23T08:47:18;9.60;;;8.77;;
6517;SDS011;3292;48.944;9.240;2022-07-23T08:49:45;8.17;;;7.37;;
6517;SDS011;3292;48.944;9.240;2022-07-23T08:52:22;7.63;;;7.03;;
6517;SDS011;3292;48.944;9.240;2022-07-23T08:54:50;7.67;;;6.87;;
6517;SDS011;3292;48.944;9.240;2022-07-23T08:57:18;7.83;;;7.13;;
6517;SDS011;3292;48.944;9.240;2022-07-23T08:59:45;7.77;;;7.10;;
6517;SDS011;3292;48.944;9.240;2022-07-23T09:02:15;7.83;;;7.13;;
6517;SDS011;3292;48.944;9.240;2022-07-23T09:04:44;7.10;;;6.57;;
6517;SDS011;3292;48.944;9.240;2022-07-23T09:07:12;8.33;;;7.50;;
6517;SDS011;3292;48.944;9.240;2022-07-23T09:09:39;8.67;;;7.87;;
6517;SDS011;3292;48.944;9.240;2022-07-23T09:12:08;8.07;;;7.33;;
6517;SDS011;3292;48.944;9.240;2022-07-23T09:14:40;7.65;;;6.95;;
6517;SDS011;3292;48.944;9.240;2022-07-23T09:17:14;7.75;;;7.00;;
6517;SDS011;3292;48.944;9.240;2022-07-23T09:19:45;7.40;;;6.80;;
6517;SDS011;3292;48.944;9.240;2022-07-23T09:22:19;7.20;;;6.60;;
6517;SDS011;3292;48.944;9.240;2022-07-23T09:25:06;7.05;;;6.35;;
6517;SDS011;3292;48.944;9.240;2022-07-23T09:27:46;7.05;;;6.45;;
6517;SDS011;3292;48.944;9.240;2022-07-23T09:30:30;7.28;;;6.50;;
6517;SDS011;3292;48.944;9.240;2022-07-23T09:33:04;6.00;;;5.53;;
6517;SDS011;3292;48.944;9.240;2022-07-23T09:35:49;7.32;;;6.72;;
6517;SDS011;3292;48.944;9.240;2022-07-23T09:38:18;7.72;;;7.03;;
6517;SDS011;3292;48.944;9.240;2022-07-23T09:41:04;7.25;;;6.55;;
6517;SDS011;3292;48.944;9.240;2022-07-23T09:43:34;7.10;;;6.20;;
6517;SDS011;3292;48.944;9.240;2022-07-23T09:46:17;6.75;;;6.18;;
6517;SDS011;3292;48.944;9.240;2022-07-23T09:48:46;7.25;;;6.20;;
6517;SDS011;3292;48.944;9.240;2022-07-23T09:51:15;7.05;;;6.35;;
6517;SDS011;3292;48.944;9.240;2022-07-23T09:53:44;6.82;;;5.85;;
6517;SDS011;3292;48.944;9.240;2022-07-23T09:56:12;6.00;;;5.43;;
6517;SDS011;3292;48.944;9.240;2022-07-23T09:58:43;6.45;;;5.95;;
6517;SDS011;3292;48.944;9.240;2022-07-23T10:01:14;6.78;;;6.18;;
6517;SDS011;3292;48.944;9.240;2022-07-23T10:03:50;5.90;;;5.25;;
6517;SDS011;3292;48.944;9.240;2022-07-23T10:06:25;6.13;;;5.55;;
6517;SDS011;3292;48.944;9.240;2022-07-23T10:08:57;5.55;;;5.05;;
6517;SDS011;3292;48.944;9.240;2022-07-23T10:11:26;6.05;;;4.93;;
6517;SDS011;3292;48.944;9.240;2022-07-23T10:13:56;5.75;;;5.18;;
6517;SDS011;3292;48.944;9.240;2022-07-23T10:16:26;5.15;;;4.65;;
6517;SDS011;3292;48.944;9.240;2022-07-23T10:19:02;5.15;;;4.75;;
6517;SDS011;3292;48.944;9.240;2022-07-23T10:21:36;5.10;;;4.70;;
6517;SDS011;3292;48.944;9.240;2022-07-23T10:24:20;4.57;;;4.13;;
6517;SDS011;3292;48.944;9.240;2022-07-23T10:27:20;6.47;;;5.10;;
6517;SDS011;3292;48.944;9.240;2022-07-23T10:30:04;5.28;;;4.82;;
6517;SDS011;3292;48.944;9.240;2022-07-23T10:32:45;5.65;;;4.60;;
6517;SDS011;3292;48.944;9.240;2022-07-23T10:35:23;5.57;;;5.07;;
6517;SDS011;3292;48.944;9.240;2022-07-23T10:38:07;5.72;;;5.28;;
6517;SDS011;3292;48.944;9.240;2022-07-23T10:40:53;5.85;;;5.35;;
6517;SDS011;3292;48.944;9.240;2022-07-23T10:43:28;5.53;;;5.03;;
6517;SDS011;3292;48.944;9.240;2022-07-23T11:01:33;5.78;;;5.28;;
6517;SDS011;3292;48.944;9.240;2022-07-23T11:04:10;7.47;;;5.60;;
6517;SDS011;3292;48.944;9.240;2022-07-23T11:09:42;5.90;;;5.40;;
6517;SDS011;3292;48.944;9.240;2022-07-23T11:12:40;5.78;;;5.20;;
6517;SDS011;3292;48.944;9.240;2022-07-23T11:15:16;5.38;;;4.22;;
6517;SDS011;3292;48.944;9.240;2022-07-23T11:18:03;5.43;;;4.70;;
6517;SDS011;3292;48.944;9.240;2022-07-23T11:20:54;5.03;;;4.63;;
6517;SDS011;3292;48.944;9.240;2022-07-23T11:24:04;4.80;;;4.40;;
6517;SDS011;3292;48.944;9.240;2022-07-23T11:29:39;4.93;;;4.53;;
6517;SDS011;3292;48.944;9.240;2022-07-23T11:32:30;5.15;;;4.65;;
6517;SDS011;3292;48.944;9.240;2022-07-23T11:35:18;5.13;;;4.72;;
6517;SDS011;3292;48.944;9.240;2022-07-23T11:37:51;5.38;;;4.88;;
6517;SDS011;3292;48.944;9.240;2022-07-23T11:40:27;5.20;;;4.70;;
6517;SDS011;3292;48.944;9.240;2022-07-23T11:42:56;4.97;;;4.55;;
6517;SDS011;3292;48.944;9.240;2022-07-23T11:45:31;5.30;;;4.90;;
6517;SDS011;3292;48.944;9.240;2022-07-23T11:48:07;5.05;;;4.65;;
6517;SDS011;3292;48.944;9.240;2022-07-23T11:50:36;5.20;;;4.70;;
6517;SDS011;3292;48.944;9.240;2022-07-23T11:53:08;5.53;;;5.13;;
6517;SDS011;3292;48.944;9.240;2022-07-23T11:55:39;5.20;;;4.80;;
6517;SDS011;3292;48.944;9.240;2022-07-23T11:58:12;5.43;;;5.03;;
6517;SDS011;3292;48.944;9.240;2022-07-23T12:00:43;5.35;;;4.85;;
6517;SDS011;3292;48.944;9.240;2022-07-23T12:03:13;5.35;;;4.75;;
6517;SDS011;3292;48.944;9.240;2022-07-23T12:05:43;5.35;;;4.95;;
6517;SDS011;3292;48.944;9.240;2022-07-23T12:08:22;5.53;;;5.03;;
6517;SDS011;3292;48.944;9.240;2022-07-23T12:10:57;5.30;;;4.90;;
6517;SDS011;3292;48.944;9.240;2022-07-23T12:13:24;5.60;;;4.90;;
6517;SDS011;3292;48.944;9.240;2022-07-23T12:15:56;5.13;;;4.72;;
6517;SDS011;3292;48.944;9.240;2022-07-23T12:18:25;5.38;;;4.97;;
6517;SDS011;3292;48.944;9.240;2022-07-23T12:20:54;4.88;;;4.47;;
6517;SDS011;3292;48.944;9.240;2022-07-23T12:23:24;5.22;;;4.82;;
6517;SDS011;3292;48.944;9.240;2022-07-23T12:25:55;5.28;;;4.78;;
6517;SDS011;3292;48.944;9.240;2022-07-23T12:28:37;5.75;;;5.05;;
6517;SDS011;3292;48.944;9.240;2022-07-23T12:31:10;5.50;;;5.00;;
6517;SDS011;3292;48.944;9.240;2022-07-23T12:33:43;5.00;;;4.60;;
6517;SDS011;3292;48.944;9.240;2022-07-23T12:36:16;5.13;;;4.72;;
6517;SDS011;3292;48.944;9.240;2022-07-23T12:38:45;5.50;;;5.00;;
6517;SDS011;3292;48.944;9.240;2022-07-23T12:41:21;5.40;;;5.00;;
6517;SDS011;3292;48.944;9.240;2022-07-23T12:43:48;6.22;;;5.60;;
6517;SDS011;3292;48.944;9.240;2022-07-23T12:46:21;5.70;;;5.20;;
6517;SDS011;3292;48.944;9.240;2022-07-23T12:48:52;5.30;;;4.90;;
6517;SDS011;3292;48.944;9.240;2022-07-23T12:51:22;5.63;;;5.18;;
6517;SDS011;3292;48.944;9.240;2022-07-23T12:54:10;5.80;;;5.30;;
6517;SDS011;3292;48.944;9.240;2022-07-23T12:56:53;5.57;;;4.95;;
6517;SDS011;3292;48.944;9.240;2022-07-23T12:59:23;6.00;;;5.50;;
6517;SDS011;3292;48.944;9.240;2022-07-23T13:04:38;7.45;;;5.10;;
6517;SDS011;3292;48.944;9.240;2022-07-23T13:07:30;6.25;;;5.65;;
6517;SDS011;3292;48.944;9.240;2022-07-23T13:10:13;6.00;;;5.50;;
6517;SDS011;3292;48.944;9.240;2022-07-23T13:12:49;5.72;;;5.22;;
6517;SDS011;3292;48.944;9.240;2022-07-23T13:15:29;6.95;;;6.28;;
6517;SDS011;3292;48.944;9.240;2022-07-23T13:18:06;6.63;;;5.95;;
6517;SDS011;3292;48.944;9.240;2022-07-23T13:20:49;6.53;;;6.10;;
6517;SDS011;3292;48.944;9.240;2022-07-23T13:23:19;6.65;;;6.10;;
6517;SDS011;3292;48.944;9.240;2022-07-23T13:26:16;6.55;;;5.95;;
6517;SDS011;3292;48.944;9.240;2022-07-23T13:28:58;7.07;;;6.47;;
6517;SDS011;3292;48.944;9.240;2022-07-23T13:31:35;6.70;;;6.13;;
6517;SDS011;3292;48.944;9.240;2022-07-23T13:34:06;6.80;;;6.20;;
6517;SDS011;3292;48.944;9.240;2022-07-23T13:36:33;6.90;;;6.28;;
6517;SDS011;3292;48.944;9.240;2022-07-23T13:39:00;6.68;;;5.80;;
6517;SDS011;3292;48.944;9.240;2022-07-23T13:41:27;6.88;;;6.22;;
6517;SDS011;3292;48.944;9.240;2022-07-23T13:43:54;7.05;;;5.72;;
6517;SDS011;3292;48.944;9.240;2022-07-23T13:46:22;7.13;;;6.50;;
6517;SDS011;3292;48.944;9.240;2022-07-23T13:48:57;7.38;;;5.80;;
6517;SDS011;3292;48.944;9.240;2022-07-23T13:51:38;7.07;;;6.47;;
6517;SDS011;3292;48.944;9.240;2022-07-23T13:54:28;6.07;;;5.57;;
6517;SDS011;3292;48.944;9.240;2022-07-23T13:57:03;6.10;;;5.60;;
6517;SDS011;3292;48.944;9.240;2022-07-23T13:59:41;6.75;;;6.07;;
6517;SDS011;3292;48.944;9.240;2022-07-23T14:02:17;5.70;;;5.30;;
6517;SDS011;3292;48.944;9.240;2022-07-23T14:04:51;6.03;;;5.53;;
6517;SDS011;3292;48.944;9.240;2022-07-23T14:07:41;6.18;;;5.65;;
6517;SDS011;3292;48.944;9.240;2022-07-23T14:10:27;6.15;;;5.65;;
6517;SDS011;3292;48.944;9.240;2022-07-23T14:13:04;6.05;;;5.55;;
6517;SDS011;3292;48.944;9.240;2022-07-23T14:15:37;5.72;;;5.03;;
6517;SDS011;3292;48.944;9.240;2022-07-23T14:18:09;6.38;;;5.88;;
6517;SDS011;3292;48.944;9.240;2022-07-23T14:20:38;5.88;;;5.38;;
6517;SDS011;3292;48.944;9.240;2022-07-23T14:23:15;6.00;;;5.40;;
6517;SDS011;3292;48.944;9.240;2022-07-23T14:25:42;6.07;;;5.57;;
6517;SDS011;3292;48.944;9.240;2022-07-23T14:28:13;6.30;;;5.80;;
6517;SDS011;3292;48.944;9.240;2022-07-23T14:31:00;5.72;;;5.22;;
6517;SDS011;3292;48.944;9.240;2022-07-23T14:33:32;6.45;;;5.85;;
6517;SDS011;3292;48.944;9.240;2022-07-23T14:36:13;6.07;;;5.47;;
6517;SDS011;3292;48.944;9.240;2022-07-23T14:38:46;6.13;;;5.63;;
6517;SDS011;3292;48.944;9.240;2022-07-23T14:41:13;6.43;;;5.93;;
6517;SDS011;3292;48.944;9.240;2022-07-23T14:43:40;6.45;;;5.90;;
6517;SDS011;3292;48.944;9.240;2022-07-23T14:46:07;6.32;;;5.30;;
6517;SDS011;3292;48.944;9.240;2022-07-23T14:48:34;6.10;;;5.65;;
6517;SDS011;3292;48.944;9.240;2022-07-23T14:51:06;6.70;;;6.10;;
6517;SDS011;3292;48.944;9.240;2022-07-23T14:53:33;6.75;;;6.10;;
6517;SDS011;3292;48.944;9.240;2022-07-23T14:56:01;6.78;;;6.15;;
6517;SDS011;3292;48.944;9.240;2022-07-23T14:58:30;6.38;;;5.70;;
6517;SDS011;3292;48.944;9.240;2022-07-23T15:01:00;6.60;;;5.95;;
6517;SDS011;3292;48.944;9.240;2022-07-23T15:03:33;7.00;;;6.40;;
6517;SDS011;3292;48.944;9.240;2022-07-23T15:06:21;6.57;;;5.70;;
6517;SDS011;3292;48.944;9.240;2022-07-23T15:08:58;6.97;;;6.38;;
6517;SDS011;3292;48.944;9.240;2022-07-23T15:11:36;6.47;;;5.97;;
6517;SDS011;3292;48.944;9.240;2022-07-23T15:14:14;7.97;;;6.68;;
6517;SDS011;3292;48.944;9.240;2022-07-23T15:16:45;9.55;;;6.60;;
6517;SDS011;3292;48.944;9.240;2022-07-23T15:19:22;7.35;;;6.68;;
6517;SDS011;3292;48.944;9.240;2022-07-23T15:21:52;7.47;;;6.78;;
6517;SDS011;3292;48.944;9.240;2022-07-23T15:24:19;7.25;;;6.55;;
6517;SDS011;3292;48.944;9.240;2022-07-23T15:26:48;7.65;;;6.95;;
6517;SDS011;3292;48.944;9.240;2022-07-23T15:29:19;8.00;;;7.20;;
6517;SDS011;3292;48.944;9.240;2022-07-23T15:32:04;7.55;;;6.95;;
6517;SDS011;3292;48.944;9.240;2022-07-23T15:34:34;7.25;;;6.60;;
6517;SDS011;3292;48.944;9.240;2022-07-23T15:37:02;7.75;;;6.97;;
6517;SDS011;3292;48.944;9.240;2022-07-23T15:39:43;7.25;;;6.65;;
6517;SDS011;3292;48.944;9.240;2022-07-23T15:42:14;7.80;;;7.07;;
6517;SDS011;3292;48.944;9.240;2022-07-23T15:44:41;7.50;;;6.80;;
6517;SDS011;3292;48.944;9.240;2022-07-23T15:47:10;7.15;;;6.55;;
6517;SDS011;3292;48.944;9.240;2022-07-23T15:49:45;7.50;;;6.80;;
6517;SDS011;3292;48.944;9.240;2022-07-23T15:52:20;7.35;;;6.75;;
6517;SDS011;3292;48.944;9.240;2022-07-23T15:54:54;7.43;;;6.82;;
6517;SDS011;3292;48.944;9.240;2022-07-23T15:57:33;6.75;;;6.15;;
6517;SDS011;3292;48.944;9.240;2022-07-23T16:00:06;7.68;;;7.07;;